createdAt,value
2023-02-02T00:02:02.319Z,2.05
2023-02-02T00:04:31.454Z,2.04
2023-02-02T00:06:58.789Z,2.05
2023-02-02T00:09:28.980Z,2.07
2023-02-02T00:11:56.294Z,2.09
2023-02-02T00:14:23.329Z,2.09
2023-02-02T00:16:51.789Z,2.10
2023-02-02T00:19:20.600Z,2.12
2023-02-02T00:21:48.101Z,2.12
2023-02-02T00:24:18.189Z,2.13
2023-02-02T00:26:46.428Z,2.13
2023-02-02T00:29:18.019Z,2.13
2023-02-02T00:31:44.870Z,2.12
2023-02-02T00:34:12.836Z,2.13
2023-02-02T00:36:39.774Z,2.12
2023-02-02T00:39:06.766Z,2.12
2023-02-02T00:41:33.656Z,2.11
2023-02-02T00:44:17.994Z,2.10
2023-02-02T00:46:45.120Z,2.10
2023-02-02T00:49:12.046Z,2.09
2023-02-02T00:51:39.389Z,2.08
2023-02-02T00:54:06.433Z,2.06
2023-02-02T00:56:33.821Z,2.04
2023-02-02T00:59:00.784Z,2.04
2023-02-02T01:01:27.718Z,2.05
2023-02-02T01:03:56.171Z,2.05
2023-02-02T01:06:23.280Z,2.03
2023-02-02T01:08:50.130Z,1.99
2023-02-02T01:11:17.196Z,1.93
2023-02-02T01:13:43.987Z,1.86
2023-02-02T01:16:12.567Z,1.78
2023-02-02T01:18:40.031Z,1.72
2023-02-02T01:21:09.477Z,1.65
2023-02-02T01:23:37.779Z,1.59
2023-02-02T01:26:06.756Z,1.55
2023-02-02T01:28:33.621Z,1.50
2023-02-02T01:31:06.340Z,1.46
2023-02-02T01:33:33.342Z,1.43
2023-02-02T01:36:00.167Z,1.38
2023-02-02T01:38:27.596Z,1.37
2023-02-02T01:40:56.466Z,1.34
2023-02-02T01:43:27.970Z,1.31
2023-02-02T01:45:56.390Z,1.29
2023-02-02T01:48:25.680Z,1.29
2023-02-02T01:50:56.828Z,1.29
2023-02-02T01:53:24.167Z,1.29
2023-02-02T01:55:53.429Z,1.31
2023-02-02T01:58:24.600Z,1.34
2023-02-02T02:00:52.063Z,1.37
2023-02-02T02:03:22.088Z,1.39
2023-02-02T02:05:52.980Z,1.40
2023-02-02T02:08:24.663Z,1.42
2023-02-02T02:10:52.028Z,1.44
2023-02-02T02:13:21.749Z,1.46
2023-02-02T02:16:14.389Z,1.49
2023-02-02T02:18:51.479Z,1.50
2023-02-02T02:21:54.940Z,1.51
2023-02-02T02:25:12.403Z,1.53
2023-02-02T02:28:12.069Z,1.53
2023-02-02T02:31:09.720Z,1.52
2023-02-02T02:33:37.265Z,1.51
2023-02-02T02:36:11.898Z,1.50
2023-02-02T02:38:44.888Z,1.48
2023-02-02T02:41:17.892Z,1.45
2023-02-02T02:43:50.350Z,1.42
2023-02-02T02:46:17.858Z,1.41
2023-02-02T02:48:47.790Z,1.40
2023-02-02T02:51:47.758Z,1.37
2023-02-02T02:54:23.421Z,1.37
2023-02-02T02:57:08.119Z,1.37
2023-02-02T02:59:47.009Z,1.38
2023-02-02T03:02:31.124Z,1.42
2023-02-02T03:05:09.048Z,1.44
2023-02-02T03:07:40.183Z,1.46
2023-02-02T03:10:11.650Z,1.49
2023-02-02T03:12:46.835Z,1.51
2023-02-02T03:15:15.516Z,1.57
2023-02-02T03:17:43.833Z,1.61
2023-02-02T03:20:12.645Z,1.64
2023-02-02T03:22:39.627Z,1.67
2023-02-02T03:25:07.556Z,1.70
2023-02-02T03:27:35.017Z,1.73
2023-02-02T03:30:02.249Z,1.78
2023-02-02T03:32:29.307Z,1.81
2023-02-02T03:34:56.125Z,1.85
2023-02-02T03:37:23.087Z,1.88
2023-02-02T03:39:49.926Z,1.91
2023-02-02T03:42:16.889Z,1.94
2023-02-02T03:44:43.685Z,1.97
2023-02-02T03:47:10.857Z,1.99
2023-02-02T03:49:37.619Z,2.01
2023-02-02T03:52:05.059Z,2.02
2023-02-02T03:54:32.411Z,2.04
2023-02-02T03:56:59.284Z,2.06
2023-02-02T03:59:26.270Z,2.08
2023-02-02T04:01:53.232Z,2.11
2023-02-02T04:04:20.345Z,2.13
2023-02-02T04:06:47.238Z,2.15
2023-02-02T04:09:14.083Z,2.17
2023-02-02T04:11:40.824Z,2.18
2023-02-02T04:14:07.578Z,2.20
2023-02-02T04:16:37.198Z,2.21
2023-02-02T04:19:04.002Z,2.23
2023-02-02T04:21:31.161Z,2.24
2023-02-02T04:23:58.539Z,2.25
2023-02-02T04:26:26.311Z,2.27
2023-02-02T04:28:53.134Z,2.29
2023-02-02T04:31:20.037Z,2.30
2023-02-02T04:33:46.866Z,2.30
2023-02-02T04:36:13.867Z,2.32
2023-02-02T04:38:40.617Z,2.34
2023-02-02T04:41:11.733Z,2.35
2023-02-02T04:43:39.174Z,2.36
2023-02-02T04:46:06.758Z,2.37
2023-02-02T04:48:33.836Z,2.37
2023-02-02T04:51:04.830Z,2.34
2023-02-02T04:53:32.322Z,2.36
2023-02-02T04:55:59.666Z,2.35
2023-02-02T04:58:26.501Z,2.35
2023-02-02T05:00:53.658Z,2.35
2023-02-02T05:03:21.005Z,2.35
2023-02-02T05:05:48.042Z,2.34
2023-02-02T05:08:14.801Z,2.34
2023-02-02T05:10:43.600Z,2.34
2023-02-02T05:13:10.835Z,2.33
2023-02-02T05:15:37.883Z,2.34
2023-02-02T05:18:04.799Z,2.34
2023-02-02T05:20:31.634Z,2.34
2023-02-02T05:22:58.506Z,2.34
2023-02-02T05:25:25.519Z,2.35
2023-02-02T05:27:52.791Z,2.36
2023-02-02T05:30:20.349Z,2.36
2023-02-02T05:32:47.187Z,2.37
2023-02-02T05:35:14.509Z,2.38
2023-02-02T05:37:43.254Z,2.38
2023-02-02T05:40:12.450Z,2.39
2023-02-02T05:42:39.256Z,2.40
2023-02-02T05:45:07.075Z,2.42
2023-02-02T05:47:35.756Z,2.42
2023-02-02T05:50:03.389Z,2.44
2023-02-02T05:52:38.412Z,2.44
2023-02-02T05:55:05.906Z,2.45
2023-02-02T05:57:32.719Z,2.46
2023-02-02T05:59:59.610Z,2.48
2023-02-02T06:02:26.527Z,2.49
2023-02-02T06:04:53.563Z,2.49
2023-02-02T06:07:20.638Z,2.49
2023-02-02T06:09:47.465Z,2.49
2023-02-02T06:12:14.311Z,2.51
2023-02-02T06:14:41.058Z,2.53
2023-02-02T06:17:08.081Z,2.53
2023-02-02T06:19:34.926Z,2.56
2023-02-02T06:22:01.987Z,2.58
2023-02-02T06:24:30.405Z,2.59
2023-02-02T06:26:57.413Z,2.60
2023-02-02T06:29:24.887Z,2.62
2023-02-02T06:31:51.752Z,2.62
2023-02-02T06:34:18.925Z,2.62
2023-02-02T06:36:45.829Z,2.63
2023-02-02T06:39:12.724Z,2.65
2023-02-02T06:41:40.476Z,2.65
2023-02-02T06:44:07.458Z,2.66
2023-02-02T06:46:34.212Z,2.67
2023-02-02T06:49:00.993Z,2.69
2023-02-02T06:51:28.272Z,2.69
2023-02-02T06:53:56.145Z,2.68
2023-02-02T06:56:24.695Z,2.67
2023-02-02T06:58:51.481Z,2.66
2023-02-02T07:01:18.769Z,2.65
2023-02-02T07:03:49.274Z,2.64
2023-02-02T07:06:21.164Z,2.64
2023-02-02T07:08:57.504Z,2.62
2023-02-02T07:11:30.364Z,2.62
2023-02-02T07:13:57.640Z,2.62
2023-02-02T07:16:24.551Z,2.59
2023-02-02T07:18:51.740Z,2.57
2023-02-02T07:21:21.366Z,2.58
2023-02-02T07:23:48.297Z,2.58
2023-02-02T07:26:16.230Z,2.55
2023-02-02T07:28:43.556Z,2.51
2023-02-02T07:31:19.387Z,2.51
2023-02-02T07:33:47.933Z,2.49
2023-02-02T07:36:17.372Z,2.47
2023-02-02T07:38:44.728Z,2.46
2023-02-02T07:41:11.675Z,2.46
2023-02-02T07:43:39.019Z,2.46
2023-02-02T07:46:08.446Z,2.43
2023-02-02T07:48:35.952Z,2.42
2023-02-02T07:51:04.344Z,2.41
2023-02-02T07:53:31.729Z,2.41
2023-02-02T07:56:08.873Z,2.41
2023-02-02T07:58:35.934Z,2.41
2023-02-02T08:01:05.646Z,2.40
2023-02-02T08:03:32.519Z,2.39
2023-02-02T08:06:00.406Z,2.38
2023-02-02T08:08:27.252Z,2.40
2023-02-02T08:10:55.296Z,2.42
2023-02-02T08:13:22.817Z,2.43
2023-02-02T08:15:49.851Z,2.41
2023-02-02T08:18:17.122Z,2.35
2023-02-02T08:20:44.120Z,2.34
2023-02-02T08:23:15.752Z,2.32
2023-02-02T08:25:42.868Z,2.29
2023-02-02T08:28:09.852Z,2.28
2023-02-02T08:30:37.013Z,2.23
2023-02-02T08:33:03.806Z,2.21
2023-02-02T08:35:31.095Z,2.18
2023-02-02T08:37:57.898Z,2.12
2023-02-02T08:40:25.576Z,2.08
2023-02-02T08:42:56.028Z,2.07
2023-02-02T08:46:02.510Z,2.07
2023-02-02T08:48:12.697Z,2.04
2023-02-02T08:50:39.819Z,2.04
2023-02-02T08:53:06.716Z,2.04
2023-02-02T08:55:33.589Z,2.05
2023-02-02T08:58:02.655Z,2.05
2023-02-02T09:00:29.704Z,2.03
2023-02-02T09:02:56.576Z,2.05
2023-02-02T09:05:24.150Z,2.10
2023-02-02T09:07:51.266Z,2.14
2023-02-02T09:10:19.565Z,2.20
2023-02-02T09:12:46.510Z,2.26
2023-02-02T09:15:13.839Z,2.32
2023-02-02T09:17:40.827Z,2.36
2023-02-02T09:20:09.592Z,2.39
2023-02-02T09:22:36.717Z,2.43
2023-02-02T09:25:03.647Z,2.49
2023-02-02T09:27:30.383Z,2.54
2023-02-02T09:29:57.189Z,2.57
2023-02-02T09:32:24.097Z,2.59
2023-02-02T09:34:50.936Z,2.61
2023-02-02T09:37:17.733Z,2.66
2023-02-02T09:39:45.065Z,2.72
2023-02-02T09:42:41.443Z,2.76
2023-02-02T09:45:14.655Z,2.79
2023-02-02T09:47:55.761Z,2.79
2023-02-02T09:50:33.568Z,2.80
2023-02-02T09:53:06.949Z,2.81
2023-02-02T09:55:39.311Z,2.83
2023-02-02T09:58:14.629Z,2.84
2023-02-02T10:00:47.541Z,2.86
2023-02-02T10:03:21.158Z,2.90
2023-02-02T10:05:56.792Z,2.92
2023-02-02T10:08:35.473Z,2.95
2023-02-02T10:11:06.417Z,2.97
2023-02-02T10:13:39.102Z,3.03
2023-02-02T10:16:17.233Z,3.09
2023-02-02T10:18:49.585Z,3.13
2023-02-02T10:21:25.924Z,3.15
2023-02-02T10:23:54.647Z,3.14
2023-02-02T10:26:23.553Z,3.14
2023-02-02T10:29:10.212Z,3.16
2023-02-02T10:31:50.943Z,3.16
2023-02-02T10:34:28.097Z,3.16
2023-02-02T10:37:13.640Z,3.16
2023-02-02T10:39:54.671Z,3.19
2023-02-02T10:42:34.369Z,3.20
2023-02-02T10:45:04.731Z,3.18
2023-02-02T10:47:34.353Z,3.17
2023-02-02T10:50:20.523Z,3.20
2023-02-02T10:52:50.453Z,3.24
2023-02-02T10:55:26.760Z,3.26
2023-02-02T10:58:01.644Z,3.30
2023-02-02T11:00:36.067Z,3.29
2023-02-02T11:03:04.924Z,3.29
2023-02-02T11:05:51.373Z,3.30
2023-02-02T11:08:20.801Z,3.30
2023-02-02T11:10:51.354Z,3.26
2023-02-02T11:13:26.205Z,3.21
2023-02-02T11:16:13.357Z,3.15
2023-02-02T11:18:40.378Z,3.10
2023-02-02T11:21:21.278Z,3.06
2023-02-02T11:23:56.583Z,3.03
2023-02-02T11:26:24.281Z,3.04
2023-02-02T11:28:53.662Z,3.10
2023-02-02T11:31:36.487Z,3.13
2023-02-02T11:34:23.763Z,3.16
2023-02-02T11:37:14.677Z,3.19
2023-02-02T11:39:42.255Z,3.27
2023-02-02T11:42:16.342Z,3.35
2023-02-02T11:44:44.724Z,3.46
2023-02-02T11:47:22.775Z,3.54
2023-02-02T11:49:51.846Z,3.59
2023-02-02T11:52:23.174Z,3.61
2023-02-02T11:54:53.440Z,3.64
2023-02-02T11:57:23.352Z,3.65
2023-02-02T11:59:51.991Z,3.68
2023-02-02T12:02:32.808Z,3.71
2023-02-02T12:05:34.297Z,3.76
2023-02-02T12:08:02.829Z,3.80
2023-02-02T12:10:36.770Z,3.81
2023-02-02T12:13:10.100Z,3.84
2023-02-02T12:15:48.629Z,3.85
2023-02-02T12:18:38.320Z,3.86
2023-02-02T12:21:08.145Z,3.83
2023-02-02T12:23:52.162Z,3.80
2023-02-02T12:26:27.022Z,3.75
2023-02-02T12:29:12.634Z,3.71
2023-02-02T12:31:54.106Z,3.64
2023-02-02T12:34:31.242Z,3.58
2023-02-02T12:37:04.190Z,3.52
2023-02-02T12:39:45.519Z,3.44
2023-02-02T12:42:42.350Z,3.36
2023-02-02T12:45:26.621Z,3.28
2023-02-02T12:48:04.886Z,3.20
2023-02-02T12:50:39.646Z,3.15
2023-02-02T12:53:28.289Z,3.07
2023-02-02T12:56:05.616Z,3.00
2023-02-02T12:58:40.284Z,2.98
2023-02-02T13:01:24.221Z,2.97
2023-02-02T13:04:10.471Z,2.90
2023-02-02T13:06:55.051Z,2.83
2023-02-02T13:09:30.143Z,2.81
2023-02-02T13:12:03.812Z,2.82
2023-02-02T13:14:36.501Z,2.83
2023-02-02T13:17:08.926Z,2.84
2023-02-02T13:19:39.603Z,2.82
2023-02-02T13:22:11.550Z,2.81
2023-02-02T13:24:43.257Z,2.79
2023-02-02T13:27:16.300Z,2.78
2023-02-02T13:29:48.841Z,2.75
2023-02-02T13:32:22.404Z,2.73
2023-02-02T13:34:53.402Z,2.72
2023-02-02T13:37:27.119Z,2.73
2023-02-02T13:39:59.977Z,2.75
2023-02-02T13:42:38.051Z,2.77
2023-02-02T13:45:18.708Z,2.83
2023-02-02T13:47:50.747Z,2.90
2023-02-02T13:50:22.013Z,2.98
2023-02-02T13:53:17.920Z,3.08
2023-02-02T13:56:04.731Z,3.21
2023-02-02T13:58:54.581Z,3.36
2023-02-02T14:01:23.023Z,3.47
2023-02-02T14:03:56.591Z,3.56
2023-02-02T14:06:25.432Z,3.63
2023-02-02T14:08:56.936Z,3.71
2023-02-02T14:11:29.260Z,3.76
2023-02-02T14:14:17.265Z,3.78
2023-02-02T14:16:51.873Z,3.75
2023-02-02T14:19:42.077Z,3.71
2023-02-02T14:22:21.571Z,3.65
2023-02-02T14:24:51.619Z,3.64
2023-02-02T14:27:54.480Z,3.61
2023-02-02T14:30:27.937Z,3.56
2023-02-02T14:32:55.712Z,3.52
2023-02-02T14:36:00.956Z,3.52
2023-02-02T14:38:45.002Z,3.53
2023-02-02T14:41:40.703Z,3.51
2023-02-02T14:44:08.998Z,3.46
2023-02-02T14:46:48.107Z,3.42
2023-02-02T14:49:19.142Z,3.36
2023-02-02T14:51:55.324Z,3.32
2023-02-02T14:54:27.599Z,3.29
2023-02-02T14:56:58.967Z,3.26
2023-02-02T14:59:29.143Z,3.22
2023-02-02T15:02:03.448Z,3.20
2023-02-02T15:04:31.521Z,3.18
2023-02-02T15:07:18.486Z,3.15
2023-02-02T15:09:46.674Z,3.11
2023-02-02T15:12:28.313Z,3.05
2023-02-02T15:15:03.487Z,3.00
2023-02-02T15:17:44.730Z,2.96
2023-02-02T15:20:21.420Z,2.89
2023-02-02T15:22:49.832Z,2.81
2023-02-02T15:25:26.358Z,2.65
2023-02-02T15:27:56.976Z,2.46
2023-02-02T15:30:25.596Z,2.27
2023-02-02T15:32:54.552Z,2.09
2023-02-02T15:35:26.019Z,1.91
2023-02-02T15:37:59.056Z,1.74
2023-02-02T15:40:27.857Z,1.59
2023-02-02T15:43:00.281Z,1.50
2023-02-02T15:45:39.878Z,1.44
2023-02-02T15:48:11.167Z,1.40
2023-02-02T15:50:39.749Z,1.38
2023-02-02T15:53:07.602Z,1.35
2023-02-02T15:55:37.019Z,1.34
2023-02-02T15:58:05.253Z,1.34
2023-02-02T16:00:38.063Z,1.33
2023-02-02T16:03:11.725Z,1.32
2023-02-02T16:05:48.595Z,1.29
2023-02-02T16:08:17.453Z,1.28
2023-02-02T16:10:46.589Z,1.26
2023-02-02T16:13:26.471Z,1.24
2023-02-02T16:15:59.876Z,1.23
2023-02-02T16:18:27.307Z,1.22
2023-02-02T16:20:55.514Z,1.22
2023-02-02T16:23:28.891Z,1.20
2023-02-02T16:25:59.475Z,1.21
2023-02-02T16:28:26.902Z,1.21
2023-02-02T16:30:55.271Z,1.24
2023-02-02T16:33:37.909Z,1.25
2023-02-02T16:36:12.395Z,1.27
2023-02-02T16:38:39.747Z,1.29
2023-02-02T16:41:11.467Z,1.32
2023-02-02T16:43:39.559Z,1.34
2023-02-02T16:46:09.077Z,1.36
2023-02-02T16:48:38.618Z,1.38
2023-02-02T16:51:22.593Z,1.37
2023-02-02T16:53:58.014Z,1.38
2023-02-02T16:56:30.336Z,1.39
2023-02-02T16:58:59.680Z,1.40
2023-02-02T17:01:36.982Z,1.41
2023-02-02T17:04:05.044Z,1.42
2023-02-02T17:06:50.085Z,1.42
2023-02-02T17:09:25.745Z,1.43
2023-02-02T17:12:01.241Z,1.44
2023-02-02T17:14:32.039Z,1.45
2023-02-02T17:16:59.360Z,1.46
2023-02-02T17:19:29.302Z,1.48
2023-02-02T17:21:56.372Z,1.49
2023-02-02T17:24:23.146Z,1.50
2023-02-02T17:26:50.050Z,1.53
2023-02-02T17:29:25.325Z,1.56
2023-02-02T17:31:53.527Z,1.59
2023-02-02T17:34:20.419Z,1.62
2023-02-02T17:36:47.846Z,1.63
2023-02-02T17:39:14.638Z,1.64
2023-02-02T17:41:41.885Z,1.65
2023-02-02T17:44:11.433Z,1.65
2023-02-02T17:46:40.105Z,1.65
2023-02-02T17:49:07.674Z,1.65
2023-02-02T17:51:41.192Z,1.64
2023-02-02T17:54:13.377Z,1.65
2023-02-02T17:56:40.390Z,1.64
2023-02-02T17:59:07.206Z,1.61
2023-02-02T18:01:36.993Z,1.55
2023-02-02T18:04:06.881Z,1.51
2023-02-02T18:06:33.671Z,1.48
2023-02-02T18:09:00.672Z,1.46
2023-02-02T18:11:27.610Z,1.44
2023-02-02T18:13:54.829Z,1.43
2023-02-02T18:16:21.625Z,1.44
2023-02-02T18:18:48.387Z,1.44
2023-02-02T18:21:15.842Z,1.45
2023-02-02T18:23:42.695Z,1.46
2023-02-02T18:26:14.958Z,1.46
2023-02-02T18:28:41.922Z,1.45
2023-02-02T18:31:12.383Z,1.46
2023-02-02T18:33:40.562Z,1.45
2023-02-02T18:36:13.354Z,1.43
2023-02-02T18:38:42.051Z,1.44
2023-02-02T18:41:09.062Z,1.43
2023-02-02T18:43:35.915Z,1.42
2023-02-02T18:46:06.230Z,1.41
2023-02-02T18:48:33.594Z,1.40
2023-02-02T18:51:00.572Z,1.38
2023-02-02T18:53:27.372Z,1.36
2023-02-02T18:55:54.378Z,1.35
2023-02-02T18:58:21.218Z,1.33
2023-02-02T19:00:49.227Z,1.31
2023-02-02T19:03:15.971Z,1.31
2023-02-02T19:06:00.585Z,1.30
2023-02-02T19:08:27.412Z,1.28
2023-02-02T19:11:00.365Z,1.27
2023-02-02T19:13:28.874Z,1.25
2023-02-02T19:15:56.334Z,1.25
2023-02-02T19:18:25.127Z,1.23
2023-02-02T19:20:52.814Z,1.22
2023-02-02T19:23:23.206Z,1.21
2023-02-02T19:25:54.074Z,1.21
2023-02-02T19:28:26.324Z,1.20
2023-02-02T19:30:54.312Z,1.18
2023-02-02T19:33:22.098Z,1.18
2023-02-02T19:35:53.048Z,1.19
2023-02-02T19:38:27.054Z,1.18
2023-02-02T19:40:53.852Z,1.17
2023-02-02T19:43:28.055Z,1.19
2023-02-02T19:45:55.970Z,1.19
2023-02-02T19:48:24.531Z,1.19
2023-02-02T19:50:51.815Z,1.17
2023-02-02T19:53:24.091Z,1.13
2023-02-02T19:55:52.118Z,1.09
2023-02-02T19:58:23.099Z,1.04
2023-02-02T20:00:52.135Z,1.00
2023-02-02T20:03:21.797Z,0.98
2023-02-02T20:05:50.963Z,0.94
2023-02-02T20:08:25.491Z,0.93
2023-02-02T20:10:53.634Z,0.90
2023-02-02T20:13:23.241Z,0.89
2023-02-02T20:15:51.565Z,0.88
2023-02-02T20:18:23.426Z,0.89
2023-02-02T20:20:53.251Z,0.91
2023-02-02T20:23:40.933Z,0.92
2023-02-02T20:26:21.382Z,0.93
2023-02-02T20:28:49.687Z,0.94
2023-02-02T20:31:21.958Z,0.93
2023-02-02T20:33:51.953Z,0.93
2023-02-02T20:36:28.175Z,0.95
2023-02-02T20:38:55.385Z,0.97
2023-02-02T20:41:24.538Z,0.96
2023-02-02T20:43:51.300Z,0.97
2023-02-02T20:46:18.642Z,0.96
2023-02-02T20:48:47.834Z,0.94
2023-02-02T20:51:15.770Z,0.89
2023-02-02T20:53:42.801Z,0.84
2023-02-02T20:56:09.877Z,0.80
2023-02-02T20:58:36.745Z,0.74
2023-02-02T21:01:05.777Z,0.71
2023-02-02T21:03:34.122Z,0.67
2023-02-02T21:06:01.200Z,0.61
2023-02-02T21:08:28.636Z,0.56
2023-02-02T21:10:55.407Z,0.50
2023-02-02T21:13:22.207Z,0.46
2023-02-02T21:15:49.379Z,0.42
2023-02-02T21:18:16.195Z,0.37
2023-02-02T21:20:43.047Z,0.33
2023-02-02T21:23:10.290Z,0.30
2023-02-02T21:25:37.239Z,0.28
2023-02-02T21:28:04.154Z,0.28
2023-02-02T21:30:31.478Z,0.29
2023-02-02T21:32:59.394Z,0.31
2023-02-02T21:35:27.768Z,0.31
2023-02-02T21:37:57.609Z,0.30
2023-02-02T21:40:30.500Z,0.30
2023-02-02T21:42:58.923Z,0.30
2023-02-02T21:45:34.556Z,0.29
2023-02-02T21:48:03.418Z,0.28
2023-02-02T21:50:33.256Z,0.27
2023-02-02T21:53:14.054Z,0.24
2023-02-02T21:55:41.459Z,0.22
2023-02-02T21:58:18.967Z,0.21
2023-02-02T22:00:45.884Z,0.20
2023-02-02T22:03:28.608Z,0.17
2023-02-02T22:06:00.725Z,0.15
2023-02-02T22:08:27.964Z,0.11
2023-02-02T22:10:54.798Z,0.09
2023-02-02T22:13:24.941Z,0.06
2023-02-02T22:15:53.941Z,0.01
2023-02-02T22:18:23.063Z,-0.04
2023-02-02T22:20:50.840Z,-0.07
2023-02-02T22:23:20.771Z,-0.11
2023-02-02T22:25:49.556Z,-0.15
2023-02-02T22:28:26.138Z,-0.19
2023-02-02T22:30:54.685Z,-0.22
2023-02-02T22:33:23.201Z,-0.28
2023-02-02T22:35:50.016Z,-0.32
2023-02-02T22:38:20.708Z,-0.34
2023-02-02T22:40:48.737Z,-0.36
2023-02-02T22:43:17.278Z,-0.38
2023-02-02T22:45:44.741Z,-0.39
2023-02-02T22:48:11.648Z,-0.41
2023-02-02T22:50:38.518Z,-0.43
2023-02-02T22:53:06.241Z,-0.44
2023-02-02T22:55:34.190Z,-0.45
2023-02-02T22:58:01.438Z,-0.46
2023-02-02T23:00:30.280Z,-0.46
2023-02-02T23:02:57.674Z,-0.46
2023-02-02T23:05:26.910Z,-0.44
2023-02-02T23:07:53.990Z,-0.44
2023-02-02T23:10:23.168Z,-0.42
2023-02-02T23:12:50.806Z,-0.39
2023-02-02T23:15:19.382Z,-0.38
2023-02-02T23:17:46.285Z,-0.35
2023-02-02T23:20:15.897Z,-0.33
2023-02-02T23:22:42.983Z,-0.30
2023-02-02T23:25:10.728Z,-0.27
2023-02-02T23:27:37.702Z,-0.24
2023-02-02T23:30:05.073Z,-0.22
2023-02-02T23:32:32.231Z,-0.19
2023-02-02T23:34:58.986Z,-0.18
2023-02-02T23:37:25.713Z,-0.15
2023-02-02T23:39:52.538Z,-0.13
2023-02-02T23:42:19.279Z,-0.10
2023-02-02T23:44:46.196Z,-0.06
2023-02-02T23:47:13.310Z,-0.03
2023-02-02T23:49:40.943Z,0.00
2023-02-02T23:52:07.942Z,0.03
2023-02-02T23:54:35.059Z,0.05
2023-02-02T23:57:02.606Z,0.07
2023-02-02T23:59:29.928Z,0.09
